New Mighty — 3FMN — position and weather

sailwx.info

Track history (hours):
 
Tides and Currents Weather Stations Pressure Air Temp Water Temp Dewpoint Dewpoint Depression Visibility Wind Speed Wind Dir Waves Ship Positions

New Mighty

Last reported at 2018-Jan-22 10:28 UTC. Time now 2018-Jan-22 10:34 UTC.
Position N 51°03' E 001°47'.

Length 292 m; draft 14.2 m.

Type: Cargo ship. MMSI: 354199000.

Date/timePositionNaut miles runAvg speedWind from/ knotsBaromVisibWave heightAir tempDewpointWater temp
2018-Jan-22 10:28N 51°03' E 001°47'0 0.0
2018-Jan-22 09:58N 51°03' E 001°47'0 0.0
2018-Jan-22 09:28N 51°03' E 001°47'0 0.0
2018-Jan-22 08:58N 51°03' E 001°47'0 0.0
2018-Jan-22 08:28N 51°03' E 001°47'0 0.3
2018-Jan-22 07:55N 51°03' E 001°47'0 0.5
2018-Jan-22 07:28N 51°03' E 001°48'0 0.2
2018-Jan-22 06:58N 51°03' E 001°48'0 0.1
2018-Jan-22 06:28N 51°03' E 001°48'0 0.0
2018-Jan-22 05:58N 51°03' E 001°48'0 0.0
2018-Jan-22 05:28N 51°03' E 001°48'0 0.0
2018-Jan-22 04:58N 51°03' E 001°48'0 0.0
2018-Jan-22 04:28N 51°03' E 001°48'0 0.0
2018-Jan-22 03:58N 51°03' E 001°48'0 0.0
2018-Jan-22 03:28N 51°03' E 001°48'0 0.0
2018-Jan-22 02:58N 51°03' E 001°48'0 0.2
2018-Jan-22 02:28N 51°03' E 001°47'0 0.9
2018-Jan-22 02:00N 51°03' E 001°48'3 5.5
2018-Jan-22 01:30N 51°03' E 001°44'3 5.4
2018-Jan-22 01:01N 51°02' E 001°40'4 7.5
2018-Jan-22 00:31N 51°03' E 001°34'4 7.3
2018-Jan-22 00:01N 51°06' E 001°37'4 9.0
2018-Jan-21 23:31N 51°10' E 001°41'612.4
2018-Jan-21 23:01N 51°14' E 001°48'612.6
2018-Jan-21 22:30N 51°20' E 001°52'612.1
2018-Jan-21 22:00N 51°26' E 001°56'611.7
2018-Jan-21 21:30N 51°30' E 002°02'510.9
2018-Jan-21 21:00N 51°34' E 002°07'510.3
2018-Jan-21 20:30N 51°38' E 002°13'5 9.9
2018-Jan-21 20:01N 51°42' E 002°18'5 9.5
2018-Jan-21 19:30N 51°46' E 002°23'44 8.7
2018-Jan-21 14:22N 52°04' E 003°29'410.8
2018-Jan-21 14:00N 52°04' E 003°35'511.0
2018-Jan-21 13:31N 52°04' E 003°44'5 9.7
2018-Jan-21 13:00N 52°03' E 003°52'4 7.8
2018-Jan-21 12:31N 52°01' E 003°57'510.7
2018-Jan-21 12:01N 51°59' E 004°05'2 4.3
2018-Jan-21 11:30N 51°56' E 004°05'1 1.4
2018-Jan-21 11:01N 51°56' E 004°03'0 0.0
2018-Jan-21 10:30N 51°56' E 004°03'0 0.0
2018-Jan-21 10:00N 51°56' E 004°03'0 0.0
2018-Jan-21 09:30N 51°56' E 004°03'0 0.0
2018-Jan-21 09:00N 51°56' E 004°03'0 0.0
2018-Jan-21 08:30N 51°56' E 004°03'0 0.0
2018-Jan-21 08:00N 51°56' E 004°03'0 0.0
2018-Jan-21 07:30N 51°56' E 004°03'0 0.0
2018-Jan-21 07:00N 51°56' E 004°03'0 0.0
2018-Jan-21 06:30N 51°56' E 004°03'0 0.0
2018-Jan-21 06:00N 51°56' E 004°03'0 0.0
2018-Jan-21 05:30N 51°56' E 004°03'0 0.0
2018-Jan-21 05:00N 51°56' E 004°03'0 0.0
2018-Jan-21 04:30N 51°56' E 004°03'0 0.0
2018-Jan-21 04:00N 51°56' E 004°03'0 0.0
2018-Jan-21 03:30N 51°56' E 004°03'0 0.0
2018-Jan-21 03:00N 51°56' E 004°03'0 0.0
2018-Jan-21 02:30N 51°56' E 004°03'0 0.0
2018-Jan-21 02:00N 51°56' E 004°03'0 0.0
2018-Jan-21 01:30N 51°56' E 004°03'0 0.0
2018-Jan-21 01:00N 51°56' E 004°03'0 0.0
2018-Jan-21 00:30N 51°56' E 004°03'0 0.0
2018-Jan-21 00:00N 51°56' E 004°03'0 0.0
2018-Jan-20 23:30N 51°56' E 004°03'0 0.0
2018-Jan-20 23:00N 51°56' E 004°03'0 0.0
2018-Jan-20 22:30N 51°56' E 004°03'0 0.0
2018-Jan-20 22:00N 51°56' E 004°03'0 0.0
2018-Jan-20 21:30N 51°56' E 004°03'0 0.0
2018-Jan-20 21:00N 51°56' E 004°03'0 0.0
2018-Jan-20 20:30N 51°56' E 004°03'0 0.0
2018-Jan-20 20:00N 51°56' E 004°03'0 0.0
2018-Jan-20 19:30N 51°56' E 004°03'0 0.0
2018-Jan-20 19:00N 51°56' E 004°03'0 0.0
2018-Jan-20 18:27N 51°56' E 004°03'0 0.0
2018-Jan-20 18:00N 51°56' E 004°03'0 0.0
2018-Jan-20 17:30N 51°56' E 004°03'0 0.0
2018-Jan-20 17:00N 51°56' E 004°03'0 0.0
2018-Jan-20 16:30N 51°56' E 004°03'0 0.0
2018-Jan-20 16:00N 51°56' E 004°03'0 0.0
2018-Jan-20 15:30N 51°56' E 004°03'0 0.0
2018-Jan-20 15:00N 51°56' E 004°03'0 0.0
2018-Jan-20 14:30N 51°56' E 004°03'0 0.0
2018-Jan-20 14:00N 51°56' E 004°03'0 0.0
2018-Jan-20 13:30N 51°56' E 004°03'0 0.0
2018-Jan-20 13:00N 51°56' E 004°03'0 0.0
2018-Jan-20 12:30N 51°56' E 004°03'0 0.0
2018-Jan-20 12:00N 51°56' E 004°03'0 0.0
2018-Jan-20 11:30N 51°56' E 004°03'0 0.0
2018-Jan-20 11:00N 51°56' E 004°03'0 0.0
2018-Jan-20 10:30N 51°56' E 004°03'0 0.0
2018-Jan-20 10:00N 51°56' E 004°03'0 0.0
2018-Jan-20 09:30N 51°56' E 004°03'0 0.0
2018-Jan-20 09:00N 51°56' E 004°03'0 0.0
2018-Jan-20 08:30N 51°56' E 004°03'0 0.0
2018-Jan-20 08:00N 51°56' E 004°03'0 0.0
2018-Jan-20 07:30N 51°56' E 004°03'0 0.0
2018-Jan-20 07:00N 51°56' E 004°03'0 0.0
2018-Jan-20 06:30N 51°56' E 004°03'0 0.0
2018-Jan-20 06:00N 51°56' E 004°03'0 0.0
2018-Jan-20 05:30N 51°56' E 004°03'0 0.0
2018-Jan-20 05:00N 51°56' E 004°03'0 0.0
2018-Jan-20 04:30N 51°56' E 004°03'0 0.0
2018-Jan-20 04:00N 51°56' E 004°03'0 0.0
2018-Jan-20 03:30N 51°56' E 004°03'0 0.0
2018-Jan-20 02:57N 51°56' E 004°03'0 0.0
2018-Jan-20 02:30N 51°56' E 004°03'0 0.0
2018-Jan-20 02:00N 51°56' E 004°03'0 0.0
2018-Jan-20 01:30N 51°56' E 004°03'0 0.0
2018-Jan-20 01:00N 51°56' E 004°03'0 0.0
2018-Jan-20 00:27N 51°56' E 004°03'0 0.0
2018-Jan-20 00:00N 51°56' E 004°03'0 0.0
2018-Jan-19 23:30N 51°56' E 004°03'0 0.0
2018-Jan-19 23:00N 51°56' E 004°03'0 0.0
2018-Jan-19 22:30N 51°56' E 004°03'0 0.0
2018-Jan-19 22:00N 51°56' E 004°03'0 0.0
2018-Jan-19 21:30N 51°56' E 004°03'0 0.0
2018-Jan-19 20:57N 51°56' E 004°03'0 0.0
2018-Jan-19 20:30N 51°56' E 004°03'0 0.0
2018-Jan-19 20:00N 51°56' E 004°03'0 0.0
2018-Jan-19 19:30N 51°56' E 004°03'0 0.0
2018-Jan-19 19:00N 51°56' E 004°03'0 0.0
2018-Jan-19 18:30N 51°56' E 004°03'0 0.0
2018-Jan-19 18:00N 51°56' E 004°03'0 0.0
2018-Jan-19 17:30N 51°56' E 004°03'0 0.0
2018-Jan-19 17:00N 51°56' E 004°03'0 0.0
2018-Jan-19 16:30N 51°56' E 004°03'0 0.0
2018-Jan-19 16:00N 51°56' E 004°03'0 0.0
2018-Jan-19 15:30N 51°56' E 004°03'0 0.0
2018-Jan-19 15:00N 51°56' E 004°03'0 0.0
2018-Jan-19 14:30N 51°56' E 004°03'0 0.0
2018-Jan-19 14:00N 51°56' E 004°03'0 0.0
2018-Jan-19 13:30N 51°56' E 004°03'0 0.0
2018-Jan-19 13:00N 51°56' E 004°03'0 0.0
2018-Jan-19 12:30N 51°56' E 004°03'0 0.0
2018-Jan-19 11:57N 51°56' E 004°03'0 0.0
2018-Jan-19 11:27N 51°56' E 004°03'0 0.0
2018-Jan-19 11:00N 51°56' E 004°03'0 0.0
2018-Jan-19 10:30N 51°56' E 004°03'0 0.0
2018-Jan-19 10:00N 51°56' E 004°03'0 0.0
2018-Jan-19 09:30N 51°56' E 004°03'0 0.0
2018-Jan-19 09:00N 51°56' E 004°03'0 0.0
2018-Jan-19 08:30N 51°56' E 004°03'0 0.0
2018-Jan-19 08:00N 51°56' E 004°03'0 0.0
2018-Jan-19 07:30N 51°56' E 004°03'0 0.0
2018-Jan-19 07:00N 51°56' E 004°03'0 0.0
2018-Jan-19 06:30N 51°56' E 004°03'0 0.0
2018-Jan-19 06:00N 51°56' E 004°03'0 0.0
2018-Jan-19 05:30N 51°56' E 004°03'0 0.0
2018-Jan-19 05:00N 51°56' E 004°03'0 0.0
2018-Jan-19 04:30N 51°56' E 004°03'0 0.0
2018-Jan-19 04:00N 51°56' E 004°03'0 0.0
2018-Jan-19 03:30N 51°56' E 004°03'0 0.0
2018-Jan-19 03:00N 51°56' E 004°03'0 0.0
2018-Jan-19 02:30N 51°56' E 004°03'0 0.0
2018-Jan-19 02:00N 51°56' E 004°03'0 0.0
2018-Jan-19 01:30N 51°56' E 004°03'0 0.0
2018-Jan-19 01:00N 51°56' E 004°03'0 0.0
2018-Jan-19 00:30N 51°56' E 004°03'0 0.0
2018-Jan-19 00:00N 51°56' E 004°03'0 0.0
2018-Jan-18 23:30N 51°56' E 004°03'0 0.0
2018-Jan-18 23:00N 51°56' E 004°03'0 0.0
2018-Jan-18 22:30N 51°56' E 004°03'0 0.0
2018-Jan-18 22:00N 51°56' E 004°03'0 0.0
2018-Jan-18 21:27N 51°56' E 004°03'0 0.0
2018-Jan-18 21:00N 51°56' E 004°03'0 0.0
2018-Jan-18 20:30N 51°56' E 004°03'0 0.0
2018-Jan-18 20:00N 51°56' E 004°03'0 0.0
2018-Jan-18 19:30N 51°56' E 004°03'0 0.0
2018-Jan-18 19:00N 51°56' E 004°03'0 0.0
2018-Jan-18 18:30N 51°56' E 004°03'0 0.0
2018-Jan-18 18:00N 51°56' E 004°03'0 0.0
2018-Jan-18 17:30N 51°56' E 004°03'0 0.0
2018-Jan-18 17:00N 51°56' E 004°03'0 0.0
2018-Jan-18 16:30N 51°56' E 004°03'0 0.0
2018-Jan-18 16:00N 51°56' E 004°03'0 0.0
2018-Jan-18 15:30N 51°56' E 004°03'0 0.0
2018-Jan-18 15:00N 51°56' E 004°03'0 0.0
2018-Jan-18 14:30N 51°56' E 004°03'0 0.0
2018-Jan-18 14:00N 51°56' E 004°03'0 0.0
2018-Jan-18 13:30N 51°56' E 004°03'0 0.0
2018-Jan-18 13:00N 51°56' E 004°03'0 0.0
2018-Jan-18 12:30N 51°56' E 004°03'0 0.0
2018-Jan-18 12:00N 51°56' E 004°03'0 0.0
2018-Jan-18 11:30N 51°56' E 004°03'0 0.0
2018-Jan-18 11:00N 51°56' E 004°03'0 0.0
2018-Jan-18 10:30N 51°56' E 004°03'0 0.0
2018-Jan-18 10:00N 51°56' E 004°03'0 0.0
2018-Jan-18 09:30N 51°56' E 004°03'0 0.0
2018-Jan-18 09:00N 51°56' E 004°03'0 0.0
2018-Jan-18 08:30N 51°56' E 004°03'0 0.0
2018-Jan-18 08:00N 51°56' E 004°03'0 0.0
2018-Jan-18 07:30N 51°56' E 004°03'0 0.0
2018-Jan-18 07:00N 51°56' E 004°03'0 0.0
2018-Jan-18 06:30N 51°56' E 004°03'0 0.0
2018-Jan-18 06:00N 51°56' E 004°03'0 0.0
2018-Jan-18 05:30N 51°56' E 004°03'0 0.0
2018-Jan-18 05:00N 51°56' E 004°03'0 0.0
2018-Jan-18 04:30N 51°56' E 004°03'0 0.0
2018-Jan-18 04:00N 51°56' E 004°03'0 0.0
2018-Jan-18 03:30N 51°56' E 004°03'0 0.0
2018-Jan-18 03:00N 51°56' E 004°03'0 0.0
2018-Jan-18 02:30N 51°56' E 004°03'0 0.0
2018-Jan-18 02:00N 51°56' E 004°03'0 0.0
2018-Jan-18 01:30N 51°56' E 004°03'0 0.0
2018-Jan-18 01:00N 51°56' E 004°03'0 0.0
2018-Jan-18 00:00N 51°56' E 004°03'0 0.0
2018-Jan-17 23:57N 51°56' E 004°03'  
Track history (hours):
 
Tides and Currents Weather Stations Pressure Air Temp Water Temp Dewpoint Dewpoint Depression Visibility Wind Speed Wind Dir Waves Ship Positions

New Mighty

Last reported at 2018-Jan-22 10:28 UTC. Time now 2018-Jan-22 10:34 UTC.
Position N 51°03' E 001°47'.

Length 292 m; draft 14.2 m.

Type: Cargo ship. MMSI: 354199000.

Date/timePositionNaut miles runAvg speedWind from/ knotsBaromVisibWave heightAir tempDewpointWater temp
2018-Jan-22 10:28N 51°03' E 001°47'0 0.0
2018-Jan-22 09:58N 51°03' E 001°47'0 0.0
2018-Jan-22 09:28N 51°03' E 001°47'0 0.0
2018-Jan-22 08:58N 51°03' E 001°47'0 0.0
2018-Jan-22 08:28N 51°03' E 001°47'0 0.3
2018-Jan-22 07:55N 51°03' E 001°47'0 0.5
2018-Jan-22 07:28N 51°03' E 001°48'0 0.2
2018-Jan-22 06:58N 51°03' E 001°48'0 0.1
2018-Jan-22 06:28N 51°03' E 001°48'0 0.0
2018-Jan-22 05:58N 51°03' E 001°48'0 0.0
2018-Jan-22 05:28N 51°03' E 001°48'0 0.0
2018-Jan-22 04:58N 51°03' E 001°48'0 0.0
2018-Jan-22 04:28N 51°03' E 001°48'0 0.0
2018-Jan-22 03:58N 51°03' E 001°48'0 0.0
2018-Jan-22 03:28N 51°03' E 001°48'0 0.0
2018-Jan-22 02:58N 51°03' E 001°48'0 0.2
2018-Jan-22 02:28N 51°03' E 001°47'0 0.9
2018-Jan-22 02:00N 51°03' E 001°48'3 5.5
2018-Jan-22 01:30N 51°03' E 001°44'3 5.4
2018-Jan-22 01:01N 51°02' E 001°40'4 7.5
2018-Jan-22 00:31N 51°03' E 001°34'4 7.3
2018-Jan-22 00:01N 51°06' E 001°37'4 9.0
2018-Jan-21 23:31N 51°10' E 001°41'612.4
2018-Jan-21 23:01N 51°14' E 001°48'612.6
2018-Jan-21 22:30N 51°20' E 001°52'612.1
2018-Jan-21 22:00N 51°26' E 001°56'611.7
2018-Jan-21 21:30N 51°30' E 002°02'510.9
2018-Jan-21 21:00N 51°34' E 002°07'510.3
2018-Jan-21 20:30N 51°38' E 002°13'5 9.9
2018-Jan-21 20:01N 51°42' E 002°18'5 9.5
2018-Jan-21 19:30N 51°46' E 002°23'44 8.7
2018-Jan-21 14:22N 52°04' E 003°29'410.8
2018-Jan-21 14:00N 52°04' E 003°35'511.0
2018-Jan-21 13:31N 52°04' E 003°44'5 9.7
2018-Jan-21 13:00N 52°03' E 003°52'4 7.8
2018-Jan-21 12:31N 52°01' E 003°57'510.7
2018-Jan-21 12:01N 51°59' E 004°05'2 4.3
2018-Jan-21 11:30N 51°56' E 004°05'1 1.4
2018-Jan-21 11:01N 51°56' E 004°03'0 0.0
2018-Jan-21 10:30N 51°56' E 004°03'0 0.0
2018-Jan-21 10:00N 51°56' E 004°03'0 0.0
2018-Jan-21 09:30N 51°56' E 004°03'0 0.0
2018-Jan-21 09:00N 51°56' E 004°03'0 0.0
2018-Jan-21 08:30N 51°56' E 004°03'0 0.0
2018-Jan-21 08:00N 51°56' E 004°03'0 0.0
2018-Jan-21 07:30N 51°56' E 004°03'0 0.0
2018-Jan-21 07:00N 51°56' E 004°03'0 0.0
2018-Jan-21 06:30N 51°56' E 004°03'0 0.0
2018-Jan-21 06:00N 51°56' E 004°03'0 0.0
2018-Jan-21 05:30N 51°56' E 004°03'0 0.0
2018-Jan-21 05:00N 51°56' E 004°03'0 0.0
2018-Jan-21 04:30N 51°56' E 004°03'0 0.0
2018-Jan-21 04:00N 51°56' E 004°03'0 0.0
2018-Jan-21 03:30N 51°56' E 004°03'0 0.0
2018-Jan-21 03:00N 51°56' E 004°03'0 0.0
2018-Jan-21 02:30N 51°56' E 004°03'0 0.0
2018-Jan-21 02:00N 51°56' E 004°03'0 0.0
2018-Jan-21 01:30N 51°56' E 004°03'0 0.0
2018-Jan-21 01:00N 51°56' E 004°03'0 0.0
2018-Jan-21 00:30N 51°56' E 004°03'0 0.0
2018-Jan-21 00:00N 51°56' E 004°03'0 0.0
2018-Jan-20 23:30N 51°56' E 004°03'0 0.0
2018-Jan-20 23:00N 51°56' E 004°03'0 0.0
2018-Jan-20 22:30N 51°56' E 004°03'0 0.0
2018-Jan-20 22:00N 51°56' E 004°03'0 0.0
2018-Jan-20 21:30N 51°56' E 004°03'0 0.0
2018-Jan-20 21:00N 51°56' E 004°03'0 0.0
2018-Jan-20 20:30N 51°56' E 004°03'0 0.0
2018-Jan-20 20:00N 51°56' E 004°03'0 0.0
2018-Jan-20 19:30N 51°56' E 004°03'0 0.0
2018-Jan-20 19:00N 51°56' E 004°03'0 0.0
2018-Jan-20 18:27N 51°56' E 004°03'0 0.0
2018-Jan-20 18:00N 51°56' E 004°03'0 0.0
2018-Jan-20 17:30N 51°56' E 004°03'0 0.0
2018-Jan-20 17:00N 51°56' E 004°03'0 0.0
2018-Jan-20 16:30N 51°56' E 004°03'0 0.0
2018-Jan-20 16:00N 51°56' E 004°03'0 0.0
2018-Jan-20 15:30N 51°56' E 004°03'0 0.0
2018-Jan-20 15:00N 51°56' E 004°03'0 0.0
2018-Jan-20 14:30N 51°56' E 004°03'0 0.0
2018-Jan-20 14:00N 51°56' E 004°03'0 0.0
2018-Jan-20 13:30N 51°56' E 004°03'0 0.0
2018-Jan-20 13:00N 51°56' E 004°03'0 0.0
2018-Jan-20 12:30N 51°56' E 004°03'0 0.0
2018-Jan-20 12:00N 51°56' E 004°03'0 0.0
2018-Jan-20 11:30N 51°56' E 004°03'0 0.0
2018-Jan-20 11:00N 51°56' E 004°03'0 0.0
2018-Jan-20 10:30N 51°56' E 004°03'0 0.0
2018-Jan-20 10:00N 51°56' E 004°03'0 0.0
2018-Jan-20 09:30N 51°56' E 004°03'0 0.0
2018-Jan-20 09:00N 51°56' E 004°03'0 0.0
2018-Jan-20 08:30N 51°56' E 004°03'0 0.0
2018-Jan-20 08:00N 51°56' E 004°03'0 0.0
2018-Jan-20 07:30N 51°56' E 004°03'0 0.0
2018-Jan-20 07:00N 51°56' E 004°03'0 0.0
2018-Jan-20 06:30N 51°56' E 004°03'0 0.0
2018-Jan-20 06:00N 51°56' E 004°03'0 0.0
2018-Jan-20 05:30N 51°56' E 004°03'0 0.0
2018-Jan-20 05:00N 51°56' E 004°03'0 0.0
2018-Jan-20 04:30N 51°56' E 004°03'0 0.0
2018-Jan-20 04:00N 51°56' E 004°03'0 0.0
2018-Jan-20 03:30N 51°56' E 004°03'0 0.0
2018-Jan-20 02:57N 51°56' E 004°03'0 0.0
2018-Jan-20 02:30N 51°56' E 004°03'0 0.0
2018-Jan-20 02:00N 51°56' E 004°03'0 0.0
2018-Jan-20 01:30N 51°56' E 004°03'0 0.0
2018-Jan-20 01:00N 51°56' E 004°03'0 0.0
2018-Jan-20 00:27N 51°56' E 004°03'0 0.0
2018-Jan-20 00:00N 51°56' E 004°03'0 0.0
2018-Jan-19 23:30N 51°56' E 004°03'0 0.0
2018-Jan-19 23:00N 51°56' E 004°03'0 0.0
2018-Jan-19 22:30N 51°56' E 004°03'0 0.0
2018-Jan-19 22:00N 51°56' E 004°03'0 0.0
2018-Jan-19 21:30N 51°56' E 004°03'0 0.0
2018-Jan-19 20:57N 51°56' E 004°03'0 0.0
2018-Jan-19 20:30N 51°56' E 004°03'0 0.0
2018-Jan-19 20:00N 51°56' E 004°03'0 0.0
2018-Jan-19 19:30N 51°56' E 004°03'0 0.0
2018-Jan-19 19:00N 51°56' E 004°03'0 0.0
2018-Jan-19 18:30N 51°56' E 004°03'0 0.0
2018-Jan-19 18:00N 51°56' E 004°03'0 0.0
2018-Jan-19 17:30N 51°56' E 004°03'0 0.0
2018-Jan-19 17:00N 51°56' E 004°03'0 0.0
2018-Jan-19 16:30N 51°56' E 004°03'0 0.0
2018-Jan-19 16:00N 51°56' E 004°03'0 0.0
2018-Jan-19 15:30N 51°56' E 004°03'0 0.0
2018-Jan-19 15:00N 51°56' E 004°03'0 0.0
2018-Jan-19 14:30N 51°56' E 004°03'0 0.0
2018-Jan-19 14:00N 51°56' E 004°03'0 0.0
2018-Jan-19 13:30N 51°56' E 004°03'0 0.0
2018-Jan-19 13:00N 51°56' E 004°03'0 0.0
2018-Jan-19 12:30N 51°56' E 004°03'0 0.0
2018-Jan-19 11:57N 51°56' E 004°03'0 0.0
2018-Jan-19 11:27N 51°56' E 004°03'0 0.0
2018-Jan-19 11:00N 51°56' E 004°03'0 0.0
2018-Jan-19 10:30N 51°56' E 004°03'0 0.0
2018-Jan-19 10:00N 51°56' E 004°03'0 0.0
2018-Jan-19 09:30N 51°56' E 004°03'0 0.0
2018-Jan-19 09:00N 51°56' E 004°03'0 0.0
2018-Jan-19 08:30N 51°56' E 004°03'0 0.0
2018-Jan-19 08:00N 51°56' E 004°03'0 0.0
2018-Jan-19 07:30N 51°56' E 004°03'0 0.0
2018-Jan-19 07:00N 51°56' E 004°03'0 0.0
2018-Jan-19 06:30N 51°56' E 004°03'0 0.0
2018-Jan-19 06:00N 51°56' E 004°03'0 0.0
2018-Jan-19 05:30N 51°56' E 004°03'0 0.0
2018-Jan-19 05:00N 51°56' E 004°03'0 0.0
2018-Jan-19 04:30N 51°56' E 004°03'0 0.0
2018-Jan-19 04:00N 51°56' E 004°03'0 0.0
2018-Jan-19 03:30N 51°56' E 004°03'0 0.0
2018-Jan-19 03:00N 51°56' E 004°03'0 0.0
2018-Jan-19 02:30N 51°56' E 004°03'0 0.0
2018-Jan-19 02:00N 51°56' E 004°03'0 0.0
2018-Jan-19 01:30N 51°56' E 004°03'0 0.0
2018-Jan-19 01:00N 51°56' E 004°03'0 0.0
2018-Jan-19 00:30N 51°56' E 004°03'0 0.0
2018-Jan-19 00:00N 51°56' E 004°03'0 0.0
2018-Jan-18 23:30N 51°56' E 004°03'0 0.0
2018-Jan-18 23:00N 51°56' E 004°03'0 0.0
2018-Jan-18 22:30N 51°56' E 004°03'0 0.0
2018-Jan-18 22:00N 51°56' E 004°03'0 0.0
2018-Jan-18 21:27N 51°56' E 004°03'0 0.0
2018-Jan-18 21:00N 51°56' E 004°03'0 0.0
2018-Jan-18 20:30N 51°56' E 004°03'0 0.0
2018-Jan-18 20:00N 51°56' E 004°03'0 0.0
2018-Jan-18 19:30N 51°56' E 004°03'0 0.0
2018-Jan-18 19:00N 51°56' E 004°03'0 0.0
2018-Jan-18 18:30N 51°56' E 004°03'0 0.0
2018-Jan-18 18:00N 51°56' E 004°03'0 0.0
2018-Jan-18 17:30N 51°56' E 004°03'0 0.0
2018-Jan-18 17:00N 51°56' E 004°03'0 0.0
2018-Jan-18 16:30N 51°56' E 004°03'0 0.0
2018-Jan-18 16:00N 51°56' E 004°03'0 0.0
2018-Jan-18 15:30N 51°56' E 004°03'0 0.0
2018-Jan-18 15:00N 51°56' E 004°03'0 0.0
2018-Jan-18 14:30N 51°56' E 004°03'0 0.0
2018-Jan-18 14:00N 51°56' E 004°03'0 0.0
2018-Jan-18 13:30N 51°56' E 004°03'0 0.0
2018-Jan-18 13:00N 51°56' E 004°03'0 0.0
2018-Jan-18 12:30N 51°56' E 004°03'0 0.0
2018-Jan-18 12:00N 51°56' E 004°03'0 0.0
2018-Jan-18 11:30N 51°56' E 004°03'0 0.0
2018-Jan-18 11:00N 51°56' E 004°03'0 0.0
2018-Jan-18 10:30N 51°56' E 004°03'0 0.0
2018-Jan-18 10:00N 51°56' E 004°03'0 0.0
2018-Jan-18 09:30N 51°56' E 004°03'0 0.0
2018-Jan-18 09:00N 51°56' E 004°03'0 0.0
2018-Jan-18 08:30N 51°56' E 004°03'0 0.0
2018-Jan-18 08:00N 51°56' E 004°03'0 0.0
2018-Jan-18 07:30N 51°56' E 004°03'0 0.0
2018-Jan-18 07:00N 51°56' E 004°03'0 0.0
2018-Jan-18 06:30N 51°56' E 004°03'0 0.0
2018-Jan-18 06:00N 51°56' E 004°03'0 0.0
2018-Jan-18 05:30N 51°56' E 004°03'0 0.0
2018-Jan-18 05:00N 51°56' E 004°03'0 0.0
2018-Jan-18 04:30N 51°56' E 004°03'0 0.0
2018-Jan-18 04:00N 51°56' E 004°03'0 0.0
2018-Jan-18 03:30N 51°56' E 004°03'0 0.0
2018-Jan-18 03:00N 51°56' E 004°03'0 0.0
2018-Jan-18 02:30N 51°56' E 004°03'0 0.0
2018-Jan-18 02:00N 51°56' E 004°03'0 0.0
2018-Jan-18 01:30N 51°56' E 004°03'0 0.0
2018-Jan-18 01:00N 51°56' E 004°03'0 0.0
2018-Jan-18 00:00N 51°56' E 004°03'0 0.0
2018-Jan-17 23:57N 51°56' E 004°03'  

Dump ship's entire track history